Impacts METAR Board
IDs:

KFLL - Ft Lauderdale-Hollyw, FL, US

Updated at: 0800 UTC 21 Oct 2018
Potential Impact None Slight Moderate High
Time 20/20Z 20/21Z 20/22Z 20/23Z 21/00Z 21/01Z 21/02Z 21/03Z 21/04Z 21/05Z 21/06Z 21/07Z 21/08Z
Temp85 85 83 82 81 81 81 81 81 79 78 78 78
Dewpt76 75 75 76 76 76 76 76 76 77 76 76 76
Altim29.95 29.94 29.94 29.95 29.96 29.97 29.99 29.99 29.99 29.98 29.96 29.96 29.96
VIS10 10 10 10 10 10 10 10 10 10 10 10 10
CIG-- -- -- -- -- -- -- 39 -- -- -- -- --
CoverFEWFEWFEWFEWFEWFEWFEWBKNSCTCLRFEWFEWFEW
FltCatVFRVFRVFRVFRVFRVFRVFRVFRVFRVFRVFRVFRVFR
WX--------------------------
WDir120140150140150150170230230220250270310
WSpd9 8 10 7 5 3 3 5 4 6 6 3 4
WGst-- -- -- -- -- -- -- -- -- -- -- -- --
Raw hourly METARs
KFLL 201953Z 12009KT 10SM FEW035 29/24 A2995 RMK AO2 SLP141 T02940244
KFLL 202053Z 14008KT 10SM FEW034 29/24 A2994 RMK AO2 SLP138 T02940239 56016
KFLL 202153Z 15010KT 10SM FEW036 28/24 A2994 RMK AO2 SLP138 T02830239
KFLL 202253Z 14007KT 10SM FEW036 28/24 A2995 RMK AO2 SLP141 T02780244
KFLL 202353Z 15005KT 10SM FEW035 27/24 A2996 RMK AO2 SLP145 T02720244 10306 20272 53007
KFLL 210053Z 15003KT 10SM FEW023 27/24 A2997 RMK AO2 SLP149 T02720244
KFLL 210153Z 17003KT 10SM FEW026 27/24 A2999 RMK AO2 SLP155 T02720244
KFLL 210253Z 23005KT 10SM BKN039 BKN050 27/24 A2999 RMK AO2 SLP156 T02720244 51011
KFLL 210353Z 23004KT 10SM SCT034 27/24 A2999 RMK AO2 SLP156 T02720244
KFLL 210453Z 22006KT 10SM CLR 26/25 A2998 RMK AO2 SLP151 T02610250 403110244
KFLL 210553Z 25006KT 10SM FEW033 26/24 A2996 RMK AO2 SLP146 T02560244 10278 20256 58010
KFLL 210653Z 27003KT 10SM FEW039 26/24 A2996 RMK AO2 SLP143 T02560244
KFLL 210753Z 31004KT 10SM FEW031 26/24 A2996 RMK AO2 SLP143 T02560244



Page loaded:  08:50 UTC  |   01:50 AM Pacific  |   02:50 AM Mountain  |   03:50 AM Central  |   04:50 AM Eastern

 

ADVISORIES

FORECASTS

FORECASTS

OBSERVATIONS

USER TOOLS

ABOUT US